Time;durP1;ratioP1;P1;durP2;ratioP2;P2;SDS_P1;SDS_P2;PMS_P1;PMS_P2;Temp;Humidity;BMP_temperature;BMP_pressure;BME280_temperature;BME280_humidity;BME280_pressure;Samples;Min_cycle;Max_cycle;Signal;HPM_P1;HPM_P2
2022/10/21 00:00:52;;;;;;;38.92;24.23;;;;;;;0.60;80.81;95461.62;1576839;89;21033;-52
2022/10/21 00:03:19;;;;;;;46.60;25.43;;;;;;;0.52;81.44;95465.40;1580861;89;20985;-51
2022/10/21 00:05:46;;;;;;;43.40;25.48;;;;;;;0.49;81.64;95459.37;1581446;89;21286;-51
2022/10/21 00:08:15;;;;;;;40.05;23.25;;;;;;;0.45;81.72;95461.81;1587376;90;21529;-52
2022/10/21 00:10:42;;;;;;;38.85;23.55;;;;;;;0.36;81.72;95459.37;1585349;90;21003;-52
2022/10/21 00:13:08;;;;;;;41.75;24.80;;;;;;;0.27;81.93;95466.98;1586615;89;21004;-52
2022/10/21 00:15:37;;;;;;;46.20;26.25;;;;;;;0.21;82.24;95466.30;1581170;90;21061;-55
2022/10/21 00:18:04;;;;;;;55.83;29.10;;;;;;;0.16;82.30;95461.97;1588093;90;21174;-53
2022/10/21 00:20:32;;;;;;;51.75;29.05;;;;;;;0.10;82.54;95451.26;1583548;90;21023;-54
2022/10/21 00:23:00;;;;;;;46.98;25.90;;;;;;;0.13;82.97;95453.79;1581894;90;20986;-53
2022/10/21 00:25:27;;;;;;;42.53;24.25;;;;;;;0.17;83.17;95444.59;1583817;89;21080;-53
2022/10/21 00:27:54;;;;;;;40.35;23.75;;;;;;;0.26;83.29;95438.33;1578929;89;21142;-52
2022/10/21 00:30:20;;;;;;;37.45;22.85;;;;;;;0.32;83.11;95440.95;1579296;89;21390;-53
2022/10/21 00:32:47;;;;;;;37.83;22.37;;;;;;;0.33;82.72;95434.39;1561763;90;21046;-53
2022/10/21 00:35:15;;;;;;;38.02;22.77;;;;;;;0.32;82.70;95438.25;1581745;89;21208;-53
2022/10/21 00:37:41;;;;;;;36.75;22.62;;;;;;;0.36;82.77;95434.22;1582276;89;20987;-51
2022/10/21 00:40:10;;;;;;;41.18;22.35;;;;;;;0.36;82.77;95428.25;1580434;89;21462;-53
2022/10/21 00:42:39;;;;;;;37.25;23.75;;;;;;;0.40;82.88;95429.07;1580779;89;21179;-51
2022/10/21 00:45:12;;;;;;;39.35;24.05;;;;;;;0.46;83.10;95425.48;1585359;90;21020;-53
2022/10/21 00:47:46;;;;;;;47.65;27.05;;;;;;;0.47;82.70;95426.48;1579960;89;21035;-51
2022/10/21 00:50:29;;;;;;;51.20;27.20;;;;;;;0.46;82.78;95422.77;1574545;89;21062;-53
2022/10/21 00:52:56;;;;;;;48.20;25.20;;;;;;;0.42;82.48;95418.66;1574238;90;21087;-53
2022/10/21 00:55:23;;;;;;;44.18;26.42;;;;;;;0.30;82.26;95417.55;1573727;89;21293;-55
2022/10/21 00:57:50;;;;;;;60.38;33.75;;;;;;;0.18;82.32;95410.98;1584100;89;21146;-52
2022/10/21 01:00:17;;;;;;;50.35;31.37;;;;;;;0.05;82.46;95413.68;1569562;89;21181;-51
2022/10/21 01:02:45;;;;;;;57.70;32.13;;;;;;;0.00;82.79;95415.35;1581762;89;21110;-52
2022/10/21 01:05:11;;;;;;;47.05;26.73;;;;;;;0.02;83.28;95413.06;1569160;89;21183;-52
2022/10/21 01:07:39;;;;;;;60.35;31.15;;;;;;;0.05;83.23;95413.68;1567265;90;21367;-52
2022/10/21 01:10:07;;;;;;;50.45;28.75;;;;;;;0.03;83.18;95405.16;1576677;90;21018;-51
2022/10/21 01:12:51;;;;;;;56.92;30.23;;;;;;;0.04;83.20;95418.88;1565238;90;21063;-54
2022/10/21 01:15:42;;;;;;;57.20;32.00;;;;;;;0.06;83.24;95419.30;1560458;90;21008;-52
2022/10/21 01:18:46;;;;;;;53.55;31.25;;;;;;;0.09;83.16;95415.89;1582011;90;20976;-52
2022/10/21 01:21:21;;;;;;;58.60;33.05;;;;;;;0.12;83.14;95412.45;1581137;90;21069;-53
2022/10/21 01:24:14;;;;;;;53.65;32.15;;;;;;;0.17;83.18;95408.07;1586559;90;21015;-53
2022/10/21 01:27:30;;;;;;;54.98;29.85;;;;;;;0.27;83.36;95405.31;1581517;90;21121;-52
2022/10/21 01:30:08;;;;;;;58.92;30.08;;;;;;;0.32;83.02;95399.58;1576552;89;21040;-53
2022/10/21 01:32:50;;;;;;;50.55;27.52;;;;;;;0.38;83.18;95396.19;1579641;89;21543;-52
2022/10/21 01:35:27;;;;;;;43.10;26.95;;;;;;;0.39;82.50;95391.57;1589983;89;21285;-52
2022/10/21 01:38:32;;;;;;;47.03;24.87;;;;;;;0.35;82.35;95397.48;1589709;90;21598;-52
2022/10/21 01:41:24;;;;;;;42.65;25.32;;;;;;;0.32;82.43;95396.31;1583129;89;21031;-52
2022/10/21 01:44:18;;;;;;;45.25;26.37;;;;;;;0.23;82.08;95403.13;1582463;90;21124;-54
2022/10/21 01:46:58;;;;;;;47.23;24.40;;;;;;;0.08;82.22;95397.31;1588689;90;21058;-52
2022/10/21 01:49:32;;;;;;;54.13;26.93;;;;;;;-0.03;82.37;95403.13;1573317;89;21280;-53
2022/10/21 01:51:59;;;;;;;50.15;27.48;;;;;;;-0.11;82.69;95408.78;1582415;90;21050;-51
2022/10/21 01:54:40;;;;;;;49.58;27.70;;;;;;;-0.17;82.88;95398.08;1576833;90;21129;-53
2022/10/21 01:57:07;;;;;;;59.70;28.67;;;;;;;-0.20;83.09;95396.11;1573272;89;21649;-52
2022/10/21 01:59:35;;;;;;;62.95;30.72;;;;;;;-0.25;83.12;95391.78;1582171;90;21035;-53
2022/10/21 02:02:04;;;;;;;63.38;30.95;;;;;;;-0.22;83.22;95392.98;1583693;89;21245;-53
2022/10/21 02:04:33;;;;;;;63.92;32.60;;;;;;;-0.21;83.35;95385.09;1572699;89;21537;-52
2022/10/21 02:07:01;;;;;;;71.42;34.30;;;;;;;-0.16;83.37;95394.23;1586125;90;21173;-53
2022/10/21 02:09:30;;;;;;;73.35;34.38;;;;;;;-0.12;83.52;95384.25;1580038;89;21540;-53
2022/10/21 02:11:59;;;;;;;60.65;32.83;;;;;;;-0.05;83.52;95380.31;1577090;89;21422;-52
2022/10/21 02:14:40;;;;;;;46.20;25.72;;;;;;;-0.04;83.31;95381.87;1589321;90;21269;-52
2022/10/21 02:17:09;;;;;;;49.67;26.35;;;;;;;-0.02;83.48;95381.69;1579202;89;21586;-53
2022/10/21 02:19:36;;;;;;;48.02;27.00;;;;;;;-0.07;82.83;95386.07;1578868;89;21046;-53
2022/10/21 02:22:03;;;;;;;65.30;30.00;;;;;;;-0.18;82.73;95381.66;1579836;89;21257;-52
2022/10/21 02:24:55;;;;;;;57.43;31.77;;;;;;;-0.27;82.88;95369.73;1585647;89;21028;-52
2022/10/21 02:27:22;;;;;;;59.50;31.85;;;;;;;-0.26;83.20;95367.83;1569758;89;21152;-52
2022/10/21 02:29:51;;;;;;;54.40;30.70;;;;;;;-0.23;83.37;95380.62;1580559;89;21015;-52
2022/10/21 02:33:02;;;;;;;38.92;25.15;;;;;;;-0.18;83.49;95373.54;1579176;89;21010;-52
2022/10/21 02:36:05;;;;;;;42.73;22.77;;;;;;;-0.14;83.20;95377.08;1585793;89;21051;-53
2022/10/21 02:38:39;;;;;;;52.08;24.15;;;;;;;-0.21;83.12;95373.69;1589741;89;21085;-52
2022/10/21 02:41:10;;;;;;;48.50;26.10;;;;;;;-0.27;83.41;95374.35;1589634;90;21468;-52
2022/10/21 02:43:51;;;;;;;77.58;39.18;;;;;;;-0.24;83.58;95366.89;1573196;89;21788;-54
2022/10/21 02:46:19;;;;;;;73.40;35.40;;;;;;;-0.22;83.49;95361.31;1570556;89;21114;-52
2022/10/21 02:48:46;;;;;;;74.65;35.23;;;;;;;-0.17;83.24;95365.64;1581860;90;21035;-53
2022/10/21 02:51:13;;;;;;;82.37;38.98;;;;;;;-0.17;82.92;95354.82;1570310;89;21042;-51
2022/10/21 02:53:40;;;;;;;101.30;46.35;;;;;;;-0.18;83.09;95358.12;1572099;89;21261;-53
2022/10/21 02:56:07;;;;;;;57.25;30.27;;;;;;;-0.16;83.07;95359.87;1579791;90;21172;-53
2022/10/21 02:58:35;;;;;;;45.75;26.37;;;;;;;-0.14;83.04;95359.50;1580481;89;21574;-53
2022/10/21 03:01:01;;;;;;;44.95;24.12;;;;;;;-0.15;83.04;95370.11;1584643;89;21103;-52
2022/10/21 03:03:28;;;;;;;55.70;24.37;;;;;;;-0.18;82.76;95365.43;1588065;90;20999;-52
2022/10/21 03:05:56;;;;;;;35.35;21.55;;;;;;;-0.23;82.67;95359.75;1577253;89;21262;-53
2022/10/21 03:08:23;;;;;;;37.35;20.15;;;;;;;-0.28;82.62;95354.67;1578817;89;21538;-52
2022/10/21 03:10:50;;;;;;;40.75;24.32;;;;;;;-0.36;82.42;95365.73;1587720;89;21229;-52
2022/10/21 03:13:17;;;;;;;44.03;25.52;;;;;;;-0.49;82.41;95362.45;1577574;89;21122;-51
2022/10/21 03:15:44;;;;;;;40.83;24.02;;;;;;;-0.51;82.79;95361.23;1578456;89;21051;-53
2022/10/21 03:18:11;;;;;;;42.65;23.77;;;;;;;-0.50;82.76;95360.09;1581627;89;21156;-52
2022/10/21 03:20:39;;;;;;;47.48;24.15;;;;;;;-0.48;82.85;95352.41;1581763;90;21464;-52
2022/10/21 03:23:07;;;;;;;41.92;23.87;;;;;;;-0.45;82.85;95351.70;1586973;89;21166;-53
2022/10/21 03:25:34;;;;;;;39.83;23.45;;;;;;;-0.44;82.82;95353.27;1561302;89;21119;-51
2022/10/21 03:28:03;;;;;;;44.80;23.50;;;;;;;-0.45;82.77;95355.76;1581236;90;21101;-52
2022/10/21 03:30:30;;;;;;;39.73;22.37;;;;;;;-0.48;82.78;95355.90;1583963;89;21575;-52
2022/10/21 03:32:57;;;;;;;47.70;21.77;;;;;;;-0.51;82.83;95351.78;1577531;89;20951;-52
2022/10/21 03:35:26;;;;;;;39.27;21.30;;;;;;;-0.47;83.10;95350.70;1557301;90;21237;-52
2022/10/21 03:37:53;;;;;;;42.45;22.95;;;;;;;-0.41;83.14;95341.72;1585633;89;21185;-53
2022/10/21 03:40:19;;;;;;;41.88;24.47;;;;;;;-0.36;82.91;95341.41;1577839;89;21049;-52
2022/10/21 03:42:46;;;;;;;34.10;21.02;;;;;;;-0.37;82.76;95339.84;1576805;89;21219;-53
2022/10/21 03:45:14;;;;;;;34.20;22.98;;;;;;;-0.39;82.73;95338.84;1578648;90;21101;-52
2022/10/21 03:47:41;;;;;;;58.10;25.75;;;;;;;-0.39;82.79;95342.91;1580564;89;21071;-53
2022/10/21 03:50:09;;;;;;;51.92;25.75;;;;;;;-0.38;82.92;95330.95;1578319;89;21189;-53
2022/10/21 03:52:36;;;;;;;40.88;24.47;;;;;;;-0.27;83.28;95333.80;1582494;89;21098;-51
2022/10/21 03:55:03;;;;;;;46.68;27.00;;;;;;;-0.18;83.04;95331.64;1579562;89;21251;-54
2022/10/21 03:57:30;;;;;;;88.17;41.02;;;;;;;-0.08;82.95;95331.78;1582683;89;21036;-52
2022/10/21 03:59:57;;;;;;;45.48;25.77;;;;;;;0.00;82.39;95326.70;1583979;89;21091;-52
2022/10/21 04:02:24;;;;;;;44.13;22.05;;;;;;;0.04;81.79;95329.64;1572813;89;21039;-53
2022/10/21 04:04:50;;;;;;;31.73;19.87;;;;;;;0.03;81.55;95321.91;1585969;89;21459;-53
2022/10/21 04:07:17;;;;;;;33.60;20.72;;;;;;;-0.02;81.41;95311.97;1580978;89;21167;-52
2022/10/21 04:09:44;;;;;;;41.18;22.60;;;;;;;-0.03;81.60;95323.35;1587503;90;21092;-52
2022/10/21 04:12:11;;;;;;;46.90;25.25;;;;;;;0.03;81.87;95314.56;1576553;89;21240;-52
2022/10/21 04:14:38;;;;;;;42.00;24.35;;;;;;;0.10;81.28;95321.98;1565574;90;20995;-52
2022/10/21 04:17:04;;;;;;;41.15;23.42;;;;;;;0.08;81.34;95320.23;1582822;89;21249;-54
2022/10/21 04:19:31;;;;;;;43.00;24.05;;;;;;;0.09;81.11;95323.14;1580681;89;21160;-52
2022/10/21 04:21:58;;;;;;;72.60;26.97;;;;;;;0.12;80.86;95324.55;1579537;89;21018;-52
2022/10/21 04:24:24;;;;;;;57.62;23.73;;;;;;;0.06;80.40;95321.94;1579021;89;21217;-55
2022/10/21 04:26:52;;;;;;;60.78;25.70;;;;;;;0.01;80.41;95323.61;1573035;90;21077;-52
2022/10/21 04:29:19;;;;;;;40.65;22.50;;;;;;;-0.04;80.39;95319.68;1580945;89;21057;-51
2022/10/21 04:31:46;;;;;;;61.30;26.07;;;;;;;-0.01;80.69;95313.73;1578805;90;21250;-53
2022/10/21 04:34:13;;;;;;;53.45;24.57;;;;;;;0.07;80.49;95309.97;1583247;90;21099;-51
2022/10/21 04:36:40;;;;;;;59.33;24.40;;;;;;;0.06;79.90;95312.47;1585392;89;21047;-54
2022/10/21 04:39:07;;;;;;;43.58;25.20;;;;;;;0.01;79.78;95312.80;1583718;90;21014;-52
2022/10/21 04:41:34;;;;;;;61.40;30.32;;;;;;;0.01;79.66;95303.92;1577363;89;21534;-50
2022/10/21 04:44:02;;;;;;;89.32;35.90;;;;;;;0.07;79.74;95306.50;1574766;89;21240;-53
2022/10/21 04:46:29;;;;;;;82.37;36.70;;;;;;;0.20;80.07;95302.42;1578864;89;21046;-57
2022/10/21 04:48:56;;;;;;;78.97;38.73;;;;;;;0.41;79.69;95302.09;1558547;90;21174;-54
2022/10/21 04:51:23;;;;;;;58.13;29.65;;;;;;;0.56;79.07;95298.41;1580780;89;21085;-55
2022/10/21 04:53:50;;;;;;;59.30;31.97;;;;;;;0.69;78.70;95301.07;1587234;90;21007;-52
2022/10/21 04:56:17;;;;;;;42.62;29.32;;;;;;;0.74;78.11;95299.97;1582816;89;21197;-52
2022/10/21 04:58:44;;;;;;;49.03;28.57;;;;;;;0.77;78.11;95302.69;1556113;91;21511;-52
2022/10/21 05:01:10;;;;;;;56.00;30.45;;;;;;;0.84;77.76;95302.78;1575856;89;21043;-52
2022/10/21 05:03:38;;;;;;;73.12;37.48;;;;;;;0.82;76.95;95303.73;1583233;89;21083;-52
2022/10/21 05:06:05;;;;;;;84.42;43.00;;;;;;;0.75;76.66;95299.58;1564474;90;21233;-53
2022/10/21 05:08:33;;;;;;;66.47;37.15;;;;;;;0.74;76.57;95303.44;1583003;89;21242;-54
2022/10/21 05:11:01;;;;;;;59.73;33.10;;;;;;;0.76;76.62;95299.78;1585103;90;21515;-54
2022/10/21 05:13:28;;;;;;;71.53;33.35;;;;;;;0.83;76.41;95297.16;1576853;89;21002;-51
2022/10/21 05:16:01;;;;;;;64.90;32.42;;;;;;;0.93;76.63;95296.47;1569220;89;21585;-52
2022/10/21 05:18:28;;;;;;;69.67;34.25;;;;;;;1.08;76.46;95304.94;1580825;89;21526;-52
2022/10/21 05:20:56;;;;;;;77.78;36.98;;;;;;;1.11;75.46;95301.48;1554026;89;21048;-56
2022/10/21 05:23:24;;;;;;;69.17;35.52;;;;;;;1.07;75.25;95291.75;1581875;89;21548;-53
2022/10/21 05:25:51;;;;;;;85.42;40.23;;;;;;;1.03;75.23;95300.43;1581263;89;20996;-53
2022/10/21 05:28:20;;;;;;;81.20;41.75;;;;;;;1.06;75.24;95296.41;1585999;90;21024;-54
2022/10/21 05:30:48;;;;;;;101.92;48.68;;;;;;;1.13;75.05;95296.47;1576198;89;21058;-55
2022/10/21 05:33:15;;;;;;;86.53;46.48;;;;;;;1.11;74.75;95304.19;1560305;90;21303;-55
2022/10/21 05:35:43;;;;;;;80.10;39.75;;;;;;;1.08;74.65;95302.23;1564424;90;21152;-52
2022/10/21 05:38:10;;;;;;;78.87;40.78;;;;;;;0.95;74.52;95298.23;1586136;88;21520;-55
2022/10/21 05:40:36;;;;;;;76.25;40.15;;;;;;;0.87;75.19;95306.09;1556740;88;21206;-54
2022/10/21 05:43:03;;;;;;;70.92;35.88;;;;;;;0.95;75.86;95305.59;1585292;89;21143;-57
2022/10/21 05:45:30;;;;;;;71.85;36.53;;;;;;;1.03;75.51;95316.13;1590636;88;21156;-57
2022/10/21 05:47:57;;;;;;;53.85;34.70;;;;;;;0.97;75.22;95306.76;1539532;90;21098;-58
2022/10/21 05:50:23;;;;;;;57.70;36.73;;;;;;;0.88;75.35;95309.00;1587384;88;21521;-53
2022/10/21 05:52:51;;;;;;;55.75;31.90;;;;;;;0.83;75.84;95306.64;1561401;89;21538;-56
2022/10/21 05:55:18;;;;;;;38.23;25.62;;;;;;;0.93;76.31;95308.66;1569860;88;21286;-56
2022/10/21 05:57:46;;;;;;;45.10;27.37;;;;;;;1.03;76.29;95309.34;1582310;88;21532;-56
2022/10/21 06:00:14;;;;;;;41.53;27.65;;;;;;;1.19;76.35;95307.75;1561359;88;21066;-57
2022/10/21 06:02:42;;;;;;;63.15;33.15;;;;;;;1.28;76.08;95306.28;1570563;89;21105;-54
2022/10/21 06:05:09;;;;;;;61.68;30.85;;;;;;;1.34;76.31;95307.48;1579875;88;21131;-59
2022/10/21 06:07:39;;;;;;;41.83;23.22;;;;;;;1.48;76.74;95300.83;1565741;88;21143;-55
2022/10/21 06:10:07;;;;;;;43.85;25.00;;;;;;;1.68;76.58;95303.49;1563843;89;21116;-58
2022/10/21 06:12:35;;;;;;;60.33;31.65;;;;;;;1.86;76.43;95304.39;1557614;89;21111;-56
2022/10/21 06:15:02;;;;;;;68.80;35.73;;;;;;;2.01;76.18;95300.61;1581815;89;21835;-55
2022/10/21 06:17:30;;;;;;;124.00;57.85;;;;;;;2.12;75.63;95302.81;1577370;89;21028;-54
2022/10/21 06:19:57;;;;;;;86.08;45.48;;;;;;;2.13;75.49;95310.56;1571781;89;21184;-57
2022/10/21 06:22:24;;;;;;;54.85;31.07;;;;;;;2.17;75.54;95307.88;1574347;90;22188;-58
2022/10/21 06:24:51;;;;;;;56.28;31.73;;;;;;;2.27;76.00;95309.28;1564202;89;21067;-53
2022/10/21 06:27:19;;;;;;;53.23;31.80;;;;;;;2.42;75.64;95300.05;1559410;90;21145;-57
2022/10/21 06:29:45;;;;;;;74.53;36.13;;;;;;;2.51;75.26;95303.77;1571282;89;21095;-56
2022/10/21 06:32:12;;;;;;;70.52;36.45;;;;;;;2.58;75.33;95306.50;1558088;90;21008;-50
2022/10/21 06:34:39;;;;;;;68.95;34.30;;;;;;;2.71;75.20;95310.44;1587731;88;21240;-55
2022/10/21 06:37:06;;;;;;;65.57;33.55;;;;;;;2.79;75.24;95302.50;1572494;89;21112;-59
2022/10/21 06:39:34;;;;;;;71.77;34.60;;;;;;;2.92;75.13;95309.14;1505574;91;21188;-53
2022/10/21 06:42:00;;;;;;;64.17;30.55;;;;;;;3.00;75.03;95297.91;1546333;90;21748;-57
2022/10/21 06:44:33;;;;;;;53.50;31.12;;;;;;;3.13;74.96;95301.03;1507795;93;21011;-54
2022/10/21 06:47:00;;;;;;;60.92;35.13;;;;;;;3.21;74.69;95305.33;1545685;89;21148;-58
2022/10/21 06:49:27;;;;;;;58.08;31.17;;;;;;;3.34;74.69;95295.61;1562020;89;22248;-55
2022/10/21 06:51:54;;;;;;;45.92;29.32;;;;;;;3.48;74.31;95303.22;1559582;89;21148;-53
2022/10/21 06:54:21;;;;;;;45.35;26.65;;;;;;;3.52;74.18;95300.67;1542221;91;21104;-55
2022/10/21 06:56:48;;;;;;;44.80;24.37;;;;;;;3.50;73.83;95296.20;1537986;90;21670;-57
2022/10/21 06:59:15;;;;;;;41.00;24.77;;;;;;;3.53;74.02;95296.02;1556498;89;21297;-56
2022/10/21 07:01:42;;;;;;;41.75;24.52;;;;;;;3.56;73.91;95298.75;1581274;89;21039;-55
2022/10/21 07:04:09;;;;;;;38.95;22.55;;;;;;;3.62;73.79;95294.47;1585629;88;21137;-56
2022/10/21 07:06:38;;;;;;;43.92;22.70;;;;;;;3.67;73.48;95295.42;1581758;88;21076;-57
2022/10/21 07:09:06;;;;;;;31.73;19.25;;;;;;;3.83;73.58;95283.56;1544217;90;21136;-55
2022/10/21 07:11:35;;;;;;;40.38;24.65;;;;;;;3.99;72.99;95275.77;1563729;88;21092;-55
2022/10/21 07:14:01;;;;;;;58.90;33.83;;;;;;;4.13;72.87;95282.55;1584992;88;21007;-55
2022/10/21 07:16:32;;;;;;;44.53;27.32;;;;;;;4.24;73.18;95282.52;1574307;88;21112;-56
2022/10/21 07:19:00;;;;;;;48.92;32.55;;;;;;;4.38;72.89;95287.92;1530348;92;21049;-54
2022/10/21 07:21:28;;;;;;;45.28;29.82;;;;;;;4.40;72.81;95274.08;1517804;92;21113;-54
2022/10/21 07:23:55;;;;;;;45.33;28.47;;;;;;;4.41;72.75;95271.55;1517290;91;21595;-56
2022/10/21 07:26:22;;;;;;;37.75;23.83;;;;;;;4.45;72.65;95274.27;1581757;88;21595;-53
2022/10/21 07:28:51;;;;;;;37.78;22.82;;;;;;;4.42;72.70;95274.46;1567834;89;21155;-60
2022/10/21 07:31:19;;;;;;;34.03;23.47;;;;;;;4.43;72.77;95267.84;1574965;88;21093;-56
2022/10/21 07:33:47;;;;;;;32.63;21.10;;;;;;;4.44;72.71;95274.84;1567455;89;21174;-59
2022/10/21 07:36:17;;;;;;;37.65;22.58;;;;;;;4.56;72.63;95268.97;1586282;89;21156;-55
2022/10/21 07:38:45;;;;;;;37.93;26.27;;;;;;;4.73;72.58;95270.05;1547465;90;21118;-57
2022/10/21 07:41:25;;;;;;;41.68;26.93;;;;;;;4.86;72.31;95259.68;1535590;90;21091;-56
2022/10/21 07:43:52;;;;;;;41.28;25.52;;;;;;;4.91;71.83;95266.06;1510917;92;21600;-57
2022/10/21 07:46:20;;;;;;;30.25;20.72;;;;;;;5.00;71.81;95255.48;1517889;91;21228;-56
2022/10/21 07:48:48;;;;;;;38.88;23.50;;;;;;;5.09;71.49;95246.86;1562103;89;22037;-59
2022/10/21 07:51:19;;;;;;;34.15;20.80;;;;;;;5.31;70.80;95250.41;1536829;91;22076;-55
2022/10/21 07:53:48;;;;;;;30.80;20.50;;;;;;;5.49;70.21;95245.59;1533186;91;21121;-54
2022/10/21 07:56:20;;;;;;;26.62;16.80;;;;;;;5.72;69.79;95241.69;1549077;89;21111;-60
2022/10/21 07:58:47;;;;;;;27.07;17.00;;;;;;;5.81;68.84;95244.77;1583243;88;21085;-58
2022/10/21 08:01:15;;;;;;;28.20;16.67;;;;;;;5.92;68.58;95234.50;1589074;88;21073;-56
2022/10/21 08:03:44;;;;;;;30.00;18.30;;;;;;;6.08;68.26;95232.00;1571667;88;21550;-59
2022/10/21 08:06:12;;;;;;;25.82;15.25;;;;;;;6.21;67.26;95227.58;1579879;89;21196;-61
2022/10/21 08:08:39;;;;;;;27.62;13.95;;;;;;;6.22;66.58;95220.35;1567675;89;21131;-58
2022/10/21 08:11:07;;;;;;;17.77;12.45;;;;;;;6.27;66.30;95211.70;1575465;89;21160;-55
2022/10/21 08:13:34;;;;;;;18.67;11.90;;;;;;;6.35;66.08;95214.52;1543562;91;21248;-52
2022/10/21 08:16:03;;;;;;;22.35;11.85;;;;;;;6.50;65.36;95207.70;1585742;88;21017;-55
2022/10/21 08:18:31;;;;;;;17.45;11.60;;;;;;;6.71;64.87;95201.20;1579855;88;21080;-56
2022/10/21 08:20:58;;;;;;;20.48;12.68;;;;;;;6.91;64.44;95205.58;1572244;88;21508;-55
2022/10/21 08:23:25;;;;;;;23.85;14.00;;;;;;;7.04;63.88;95186.67;1562553;89;21695;-56
2022/10/21 08:25:55;;;;;;;25.00;13.10;;;;;;;7.11;63.60;95192.78;1594174;88;21216;-53
2022/10/21 08:28:24;;;;;;;21.25;12.93;;;;;;;7.23;63.64;95188.89;1565554;89;21166;-56
2022/10/21 08:30:51;;;;;;;22.65;11.60;;;;;;;7.43;62.66;95184.85;1576773;89;21054;-55
2022/10/21 08:33:18;;;;;;;19.23;12.30;;;;;;;7.60;61.75;95182.41;1568025;90;21021;-55
2022/10/21 08:35:46;;;;;;;19.55;11.38;;;;;;;7.73;61.56;95180.63;1567414;89;21053;-60
2022/10/21 08:38:13;;;;;;;17.05;9.95;;;;;;;7.85;61.14;95175.92;1553562;90;21258;-57
2022/10/21 08:40:46;;;;;;;13.90;9.68;;;;;;;8.02;60.55;95170.11;1573781;89;21076;-59
2022/10/21 08:43:24;;;;;;;14.10;9.45;;;;;;;8.17;59.79;95164.54;1556993;90;21088;-54
2022/10/21 08:46:10;;;;;;;13.28;8.73;;;;;;;8.27;59.17;95166.31;1564295;88;21036;-57
2022/10/21 08:48:55;;;;;;;14.47;9.15;;;;;;;8.40;58.89;95168.60;1574985;88;21100;-59
2022/10/21 08:51:31;;;;;;;22.00;10.70;;;;;;;8.77;58.25;95169.58;1574329;88;21959;-56
2022/10/21 08:54:08;;;;;;;20.12;10.28;;;;;;;9.25;57.25;95157.31;1566279;89;21671;-57
2022/10/21 08:56:35;;;;;;;14.18;8.53;;;;;;;9.59;56.54;95152.16;1551198;89;21089;-56
2022/10/21 08:59:02;;;;;;;10.95;7.95;;;;;;;9.86;55.12;95153.41;1543825;90;21692;-54
2022/10/21 09:01:39;;;;;;;13.30;7.83;;;;;;;10.05;54.68;95147.63;1534963;91;21102;-60
2022/10/21 09:04:32;;;;;;;11.65;7.55;;;;;;;10.40;53.67;95148.03;1571786;89;21166;-56
2022/10/21 09:07:19;;;;;;;12.23;6.10;;;;;;;10.68;52.53;95139.73;1580892;88;21004;-57
2022/10/21 09:09:54;;;;;;;11.08;5.67;;;;;;;10.89;51.02;95135.75;1536257;91;21214;-54
2022/10/21 09:12:41;;;;;;;8.05;5.65;;;;;;;11.19;50.01;95133.81;1544704;91;21157;-60
2022/10/21 09:15:34;;;;;;;9.18;6.42;;;;;;;11.54;48.75;95134.05;1574008;88;21058;-59
2022/10/21 09:18:20;;;;;;;18.07;7.45;;;;;;;11.85;48.07;95125.37;1567248;89;21201;-58
2022/10/21 09:21:01;;;;;;;14.00;6.72;;;;;;;12.14;47.38;95127.31;1536432;91;21137;-59
2022/10/21 09:23:51;;;;;;;10.00;6.17;;;;;;;12.28;47.12;95126.79;1546572;90;21170;-55
2022/10/21 09:26:52;;;;;;;7.85;5.20;;;;;;;12.40;46.62;95122.42;1540048;89;21035;-57
2022/10/21 09:29:44;;;;;;;7.65;4.62;;;;;;;12.67;44.92;95118.64;1574088;88;21111;-58
2022/10/21 09:32:18;;;;;;;7.20;5.03;;;;;;;12.98;44.14;95106.24;1573988;88;21403;-55
2022/10/21 09:35:18;;;;;;;12.93;5.35;;;;;;;13.25;43.31;95106.38;1543432;91;21129;-57
2022/10/21 09:37:50;;;;;;;11.63;4.67;;;;;;;13.54;43.05;95099.84;1569392;89;21638;-57
2022/10/21 09:40:22;;;;;;;5.45;3.83;;;;;;;14.05;41.94;95099.45;1573575;88;21241;-60
2022/10/21 09:42:54;;;;;;;7.08;4.08;;;;;;;14.58;40.31;95091.75;1571018;89;21057;-58
2022/10/21 09:45:37;;;;;;;11.22;4.40;;;;;;;14.99;39.48;95093.20;1575830;89;21311;-53
2022/10/21 09:48:19;;;;;;;8.40;4.10;;;;;;;15.41;38.97;95093.22;1579054;89;21893;-54
2022/10/21 09:50:56;;;;;;;;;;;;;;;15.91;38.09;95091.67;1578063;88;21067;-55
2022/10/21 09:53:39;;;;;;;7.08;3.02;;;;;;;16.33;37.25;95079.80;1565952;90;20180;-55
2022/10/21 09:56:15;;;;;;;16.55;4.62;;;;;;;16.69;36.95;95069.78;1581922;88;21154;-55
2022/10/21 09:58:50;;;;;;;5.15;4.00;;;;;;;17.22;36.75;95074.56;1566845;89;21275;-58
2022/10/21 10:01:21;;;;;;;5.75;3.83;;;;;;;17.72;36.26;95059.41;1530981;92;21178;-59
2022/10/21 10:03:50;;;;;;;8.30;3.47;;;;;;;18.28;35.53;95053.45;1527284;91;21115;-58
2022/10/21 10:06:41;;;;;;;6.42;3.47;;;;;;;18.95;34.75;95054.27;1549819;89;21153;-53
2022/10/21 10:09:26;;;;;;;31.05;5.30;;;;;;;19.51;34.19;95054.86;1576404;89;21099;-55
2022/10/21 10:12:00;;;;;;;6.55;3.45;;;;;;;20.01;32.92;95048.95;1537282;91;22387;-53
2022/10/21 10:14:42;;;;;;;8.73;3.60;;;;;;;20.42;32.02;95047.36;1574065;88;21106;-53
2022/10/21 10:17:37;;;;;;;4.40;2.90;;;;;;;20.73;31.28;95044.39;1578868;88;21117;-54
2022/10/21 10:20:19;;;;;;;4.55;3.35;;;;;;;21.09;30.31;95041.40;1585417;88;21061;-55
2022/10/21 10:23:01;;;;;;;5.17;4.08;;;;;;;21.30;29.87;95033.52;1566612;89;21116;-55
2022/10/21 10:25:34;;;;;;;11.33;3.77;;;;;;;21.70;30.90;95030.19;1570059;89;22131;-54
2022/10/21 10:28:08;;;;;;;13.15;4.40;;;;;;;22.41;29.90;95029.97;1560843;90;20986;-54
2022/10/21 10:30:47;;;;;;;6.67;3.27;;;;;;;22.98;29.19;95023.64;1570569;90;21201;-54
2022/10/21 10:33:24;;;;;;;13.00;3.50;;;;;;;23.51;27.78;95020.17;1565463;90;21135;-55
2022/10/21 10:36:00;;;;;;;5.67;3.65;;;;;;;23.82;27.55;95012.62;1579470;88;21148;-58
2022/10/21 10:38:35;;;;;;;11.80;3.90;;;;;;;24.32;27.92;95004.36;1565302;88;21527;-55
2022/10/21 10:41:08;;;;;;;35.25;5.60;;;;;;;24.75;27.29;95002.29;1585698;88;21144;-57
2022/10/21 10:43:50;;;;;;;11.83;3.52;;;;;;;25.07;26.16;94991.80;1589829;88;21065;-55
2022/10/21 10:46:44;;;;;;;15.95;4.12;;;;;;;25.46;25.52;94994.80;1585442;88;21022;-52
2022/10/21 10:49:23;;;;;;;19.30;5.10;;;;;;;25.75;25.32;94988.12;1565276;89;21557;-55
2022/10/21 10:52:09;;;;;;;11.50;4.85;;;;;;;25.97;25.07;94985.01;1567596;89;21298;-55
2022/10/21 10:54:39;;;;;;;6.20;4.15;;;;;;;26.12;25.29;94977.44;1589377;88;21033;-54
2022/10/21 10:57:23;;;;;;;15.13;6.03;;;;;;;26.40;25.05;94972.74;1589477;88;21093;-55
2022/10/21 11:00:19;;;;;;;8.48;4.03;;;;;;;26.73;25.02;94964.99;1576144;88;21207;-56
2022/10/21 11:03:06;;;;;;;4.42;3.02;;;;;;;26.87;24.92;94955.14;1576418;89;21066;-59
2022/10/21 11:05:46;;;;;;;10.45;2.77;;;;;;;27.30;24.15;94954.66;1555925;89;21192;-62
2022/10/21 11:08:38;;;;;;;18.42;3.50;;;;;;;27.69;23.79;94948.77;1581399;88;21130;-59
2022/10/21 11:11:38;;;;;;;13.10;5.08;;;;;;;28.04;22.78;94944.62;1526382;91;21240;-63
2022/10/21 11:13:59;;;;;;;17.70;5.00;;;;;;;28.55;22.58;94946.22;1576881;88;21113;-59
2022/10/21 11:17:05;;;;;;;19.57;5.62;;;;;;;28.57;21.66;94937.18;1580173;88;21118;-62
2022/10/21 11:19:46;;;;;;;145.68;11.43;;;;;;;28.36;21.83;94936.53;1534340;91;21152;-58
2022/10/21 11:22:40;;;;;;;51.65;6.25;;;;;;;28.37;22.46;94923.89;1574793;88;21188;-59
2022/10/21 11:25:42;;;;;;;7.28;3.67;;;;;;;28.56;21.86;94915.84;1575668;89;21098;-60
2022/10/21 11:28:28;;;;;;;5.30;3.25;;;;;;;28.75;21.65;94914.19;1577928;88;21173;-62
2022/10/21 11:31:25;;;;;;;8.28;3.67;;;;;;;29.00;22.29;94911.64;1569124;89;21115;-62
2022/10/21 11:34:20;;;;;;;11.57;3.27;;;;;;;29.29;21.84;94900.25;1575219;88;21258;-60
2022/10/21 11:37:04;;;;;;;18.48;3.27;;;;;;;29.74;21.74;94901.02;1560765;89;21376;-60
2022/10/21 11:40:12;;;;;;;3.90;2.52;;;;;;;30.09;20.57;94902.84;1584036;88;21937;-58
2022/10/21 11:42:44;;;;;;;3.37;2.35;;;;;;;30.01;20.00;94896.42;1582534;88;21068;-60
2022/10/21 11:45:39;;;;;;;2.67;2.33;;;;;;;29.73;19.74;94902.34;1562614;89;21106;-60
2022/10/21 11:48:27;;;;;;;25.62;3.10;;;;;;;29.85;19.68;94899.87;1577760;89;21536;-59
2022/10/21 11:51:15;;;;;;;5.33;2.40;;;;;;;29.81;20.25;94893.15;1534404;91;21086;-61